sensor_id;sensor_type;location;lat;lon;timestamp;P1;durP1;ratioP1;P2;durP2;ratioP2
47804;SDS011;33568;45.286;9.900;2022-07-22T00:00:01;7.57;;;3.42;;
47804;SDS011;33568;45.286;9.900;2022-07-22T00:02:30;6.38;;;3.25;;
47804;SDS011;33568;45.286;9.900;2022-07-22T00:04:57;9.82;;;4.00;;
47804;SDS011;33568;45.286;9.900;2022-07-22T00:07:23;5.78;;;3.70;;
47804;SDS011;33568;45.286;9.900;2022-07-22T00:09:50;14.85;;;4.05;;
47804;SDS011;33568;45.286;9.900;2022-07-22T00:12:16;7.03;;;3.88;;
47804;SDS011;33568;45.286;9.900;2022-07-22T00:14:45;7.95;;;3.45;;
47804;SDS011;33568;45.286;9.900;2022-07-22T00:17:11;7.55;;;3.42;;
47804;SDS011;33568;45.286;9.900;2022-07-22T00:19:38;5.28;;;3.22;;
47804;SDS011;33568;45.286;9.900;2022-07-22T00:22:05;4.97;;;3.10;;
47804;SDS011;33568;45.286;9.900;2022-07-22T00:24:31;4.28;;;3.10;;
47804;SDS011;33568;45.286;9.900;2022-07-22T00:26:58;7.68;;;3.10;;
47804;SDS011;33568;45.286;9.900;2022-07-22T00:29:25;8.85;;;3.08;;
47804;SDS011;33568;45.286;9.900;2022-07-22T00:31:51;7.55;;;2.70;;
47804;SDS011;33568;45.286;9.900;2022-07-22T00:34:18;6.70;;;3.17;;
47804;SDS011;33568;45.286;9.900;2022-07-22T00:36:46;11.90;;;3.75;;
47804;SDS011;33568;45.286;9.900;2022-07-22T00:39:13;8.10;;;3.20;;
47804;SDS011;33568;45.286;9.900;2022-07-22T00:41:41;6.95;;;3.20;;
47804;SDS011;33568;45.286;9.900;2022-07-22T00:44:07;7.18;;;2.97;;
47804;SDS011;33568;45.286;9.900;2022-07-22T00:46:35;6.95;;;3.10;;
47804;SDS011;33568;45.286;9.900;2022-07-22T00:49:05;6.15;;;3.20;;
47804;SDS011;33568;45.286;9.900;2022-07-22T00:51:33;10.30;;;3.58;;
47804;SDS011;33568;45.286;9.900;2022-07-22T00:54:01;4.72;;;2.92;;
47804;SDS011;33568;45.286;9.900;2022-07-22T00:56:29;15.90;;;3.83;;
47804;SDS011;33568;45.286;9.900;2022-07-22T00:58:59;6.25;;;2.97;;
47804;SDS011;33568;45.286;9.900;2022-07-22T01:01:30;6.25;;;3.58;;
47804;SDS011;33568;45.286;9.900;2022-07-22T01:03:57;3.63;;;2.65;;
47804;SDS011;33568;45.286;9.900;2022-07-22T01:06:24;8.93;;;3.00;;
47804;SDS011;33568;45.286;9.900;2022-07-22T01:08:51;4.18;;;2.78;;
47804;SDS011;33568;45.286;9.900;2022-07-22T01:11:18;6.00;;;3.03;;
47804;SDS011;33568;45.286;9.900;2022-07-22T01:13:45;5.65;;;2.88;;
47804;SDS011;33568;45.286;9.900;2022-07-22T01:16:16;5.35;;;3.47;;
47804;SDS011;33568;45.286;9.900;2022-07-22T01:18:44;8.18;;;2.95;;
47804;SDS011;33568;45.286;9.900;2022-07-22T01:21:11;6.05;;;3.13;;
47804;SDS011;33568;45.286;9.900;2022-07-22T01:23:39;6.63;;;2.97;;
47804;SDS011;33568;45.286;9.900;2022-07-22T01:26:06;4.63;;;2.90;;
47804;SDS011;33568;45.286;9.900;2022-07-22T01:28:37;4.50;;;2.63;;
47804;SDS011;33568;45.286;9.900;2022-07-22T01:31:03;7.40;;;2.78;;
47804;SDS011;33568;45.286;9.900;2022-07-22T01:33:30;9.60;;;3.38;;
47804;SDS011;33568;45.286;9.900;2022-07-22T01:35:56;10.75;;;3.20;;
47804;SDS011;33568;45.286;9.900;2022-07-22T01:38:23;5.57;;;2.80;;
47804;SDS011;33568;45.286;9.900;2022-07-22T01:40:50;7.60;;;3.00;;
47804;SDS011;33568;45.286;9.900;2022-07-22T01:43:17;5.55;;;2.85;;
47804;SDS011;33568;45.286;9.900;2022-07-22T01:45:47;7.68;;;2.90;;
47804;SDS011;33568;45.286;9.900;2022-07-22T01:48:15;6.28;;;2.85;;
47804;SDS011;33568;45.286;9.900;2022-07-22T01:50:42;4.75;;;2.45;;
47804;SDS011;33568;45.286;9.900;2022-07-22T01:53:10;4.22;;;2.97;;
47804;SDS011;33568;45.286;9.900;2022-07-22T01:55:37;5.10;;;2.95;;
47804;SDS011;33568;45.286;9.900;2022-07-22T01:58:05;6.47;;;2.83;;
47804;SDS011;33568;45.286;9.900;2022-07-22T02:00:33;4.35;;;2.50;;
47804;SDS011;33568;45.286;9.900;2022-07-22T02:03:02;7.05;;;3.35;;
47804;SDS011;33568;45.286;9.900;2022-07-22T02:05:31;4.03;;;2.67;;
47804;SDS011;33568;45.286;9.900;2022-07-22T02:08:05;4.85;;;2.60;;
47804;SDS011;33568;45.286;9.900;2022-07-22T02:11:10;6.00;;;3.05;;
47804;SDS011;33568;45.286;9.900;2022-07-22T02:13:48;3.92;;;2.50;;
47804;SDS011;33568;45.286;9.900;2022-07-22T02:16:15;6.53;;;2.70;;
47804;SDS011;33568;45.286;9.900;2022-07-22T02:18:42;8.95;;;3.28;;
47804;SDS011;33568;45.286;9.900;2022-07-22T02:21:09;7.60;;;3.33;;
47804;SDS011;33568;45.286;9.900;2022-07-22T02:23:35;5.63;;;3.00;;
47804;SDS011;33568;45.286;9.900;2022-07-22T02:26:02;5.05;;;2.78;;
47804;SDS011;33568;45.286;9.900;2022-07-22T02:28:30;6.32;;;2.97;;
47804;SDS011;33568;45.286;9.900;2022-07-22T02:30:57;8.48;;;3.03;;
47804;SDS011;33568;45.286;9.900;2022-07-22T02:33:23;6.68;;;2.80;;
47804;SDS011;33568;45.286;9.900;2022-07-22T02:35:50;5.95;;;2.88;;
47804;SDS011;33568;45.286;9.900;2022-07-22T02:38:16;5.55;;;2.90;;
47804;SDS011;33568;45.286;9.900;2022-07-22T02:40:42;5.78;;;3.10;;
47804;SDS011;33568;45.286;9.900;2022-07-22T02:43:11;8.70;;;3.25;;
47804;SDS011;33568;45.286;9.900;2022-07-22T02:45:38;5.78;;;2.80;;
47804;SDS011;33568;45.286;9.900;2022-07-22T02:48:04;5.25;;;2.63;;
47804;SDS011;33568;45.286;9.900;2022-07-22T02:50:32;11.00;;;2.60;;
47804;SDS011;33568;45.286;9.900;2022-07-22T02:53:00;5.68;;;2.58;;
47804;SDS011;33568;45.286;9.900;2022-07-22T02:55:30;4.13;;;2.83;;
47804;SDS011;33568;45.286;9.900;2022-07-22T02:58:03;4.32;;;2.72;;
47804;SDS011;33568;45.286;9.900;2022-07-22T03:00:31;7.03;;;3.20;;
47804;SDS011;33568;45.286;9.900;2022-07-22T03:02:58;9.52;;;2.83;;
47804;SDS011;33568;45.286;9.900;2022-07-22T03:05:24;6.65;;;2.88;;
47804;SDS011;33568;45.286;9.900;2022-07-22T03:07:58;4.75;;;2.70;;
47804;SDS011;33568;45.286;9.900;2022-07-22T03:10:26;6.22;;;3.05;;
47804;SDS011;33568;45.286;9.900;2022-07-22T03:12:52;7.13;;;3.17;;
47804;SDS011;33568;45.286;9.900;2022-07-22T03:15:19;6.35;;;3.20;;
47804;SDS011;33568;45.286;9.900;2022-07-22T03:17:45;4.93;;;2.70;;
47804;SDS011;33568;45.286;9.900;2022-07-22T03:20:11;7.30;;;2.80;;
47804;SDS011;33568;45.286;9.900;2022-07-22T03:22:38;6.38;;;2.92;;
47804;SDS011;33568;45.286;9.900;2022-07-22T03:25:05;6.47;;;3.00;;
47804;SDS011;33568;45.286;9.900;2022-07-22T03:27:32;7.60;;;2.63;;
47804;SDS011;33568;45.286;9.900;2022-07-22T03:30:01;8.32;;;3.10;;
47804;SDS011;33568;45.286;9.900;2022-07-22T03:32:31;5.50;;;2.60;;
47804;SDS011;33568;45.286;9.900;2022-07-22T03:34:58;8.98;;;3.05;;
47804;SDS011;33568;45.286;9.900;2022-07-22T03:37:25;9.60;;;3.35;;
47804;SDS011;33568;45.286;9.900;2022-07-22T03:39:52;4.82;;;2.70;;
47804;SDS011;33568;45.286;9.900;2022-07-22T03:42:19;3.55;;;2.65;;
47804;SDS011;33568;45.286;9.900;2022-07-22T03:44:47;6.82;;;2.88;;
47804;SDS011;33568;45.286;9.900;2022-07-22T03:47:17;4.70;;;2.95;;
47804;SDS011;33568;45.286;9.900;2022-07-22T03:49:48;4.07;;;2.70;;
47804;SDS011;33568;45.286;9.900;2022-07-22T03:52:24;4.45;;;2.80;;
47804;SDS011;33568;45.286;9.900;2022-07-22T03:54:52;7.00;;;2.35;;
47804;SDS011;33568;45.286;9.900;2022-07-22T03:57:19;5.38;;;3.08;;
47804;SDS011;33568;45.286;9.900;2022-07-22T03:59:52;6.28;;;2.97;;
47804;SDS011;33568;45.286;9.900;2022-07-22T04:02:21;6.90;;;2.92;;
47804;SDS011;33568;45.286;9.900;2022-07-22T04:04:47;7.80;;;3.80;;
47804;SDS011;33568;45.286;9.900;2022-07-22T04:07:16;8.25;;;3.20;;
47804;SDS011;33568;45.286;9.900;2022-07-22T04:09:42;5.18;;;2.50;;
47804;SDS011;33568;45.286;9.900;2022-07-22T04:12:09;6.28;;;2.63;;
47804;SDS011;33568;45.286;9.900;2022-07-22T04:14:51;5.22;;;2.50;;
47804;SDS011;33568;45.286;9.900;2022-07-22T04:17:18;5.43;;;2.67;;
47804;SDS011;33568;45.286;9.900;2022-07-22T04:19:45;7.15;;;2.60;;
47804;SDS011;33568;45.286;9.900;2022-07-22T04:22:21;5.82;;;3.00;;
47804;SDS011;33568;45.286;9.900;2022-07-22T04:24:47;6.30;;;2.88;;
47804;SDS011;33568;45.286;9.900;2022-07-22T04:27:14;8.40;;;3.00;;
47804;SDS011;33568;45.286;9.900;2022-07-22T04:29:41;8.75;;;5.22;;
47804;SDS011;33568;45.286;9.900;2022-07-22T04:32:08;7.78;;;4.63;;
47804;SDS011;33568;45.286;9.900;2022-07-22T04:34:35;9.70;;;4.78;;
47804;SDS011;33568;45.286;9.900;2022-07-22T04:37:02;10.10;;;5.05;;
47804;SDS011;33568;45.286;9.900;2022-07-22T04:39:34;14.63;;;5.18;;
47804;SDS011;33568;45.286;9.900;2022-07-22T04:42:00;21.08;;;6.70;;
47804;SDS011;33568;45.286;9.900;2022-07-22T04:44:28;23.23;;;6.18;;
47804;SDS011;33568;45.286;9.900;2022-07-22T04:46:55;18.23;;;6.40;;
47804;SDS011;33568;45.286;9.900;2022-07-22T04:49:22;27.77;;;6.88;;
47804;SDS011;33568;45.286;9.900;2022-07-22T04:51:49;20.40;;;7.03;;
47804;SDS011;33568;45.286;9.900;2022-07-22T04:54:30;23.48;;;6.25;;
47804;SDS011;33568;45.286;9.900;2022-07-22T04:56:57;36.70;;;7.43;;
47804;SDS011;33568;45.286;9.900;2022-07-22T04:59:25;20.20;;;7.05;;
47804;SDS011;33568;45.286;9.900;2022-07-22T05:01:52;19.73;;;6.18;;
47804;SDS011;33568;45.286;9.900;2022-07-22T05:04:18;15.90;;;5.20;;
47804;SDS011;33568;45.286;9.900;2022-07-22T05:06:45;13.80;;;6.00;;
47804;SDS011;33568;45.286;9.900;2022-07-22T05:09:12;11.07;;;5.22;;
47804;SDS011;33568;45.286;9.900;2022-07-22T05:11:39;15.88;;;6.43;;
47804;SDS011;33568;45.286;9.900;2022-07-22T05:14:07;16.85;;;6.93;;
47804;SDS011;33568;45.286;9.900;2022-07-22T05:16:35;14.00;;;6.32;;
47804;SDS011;33568;45.286;9.900;2022-07-22T05:19:04;15.80;;;6.00;;
47804;SDS011;33568;45.286;9.900;2022-07-22T05:21:32;12.60;;;5.28;;
47804;SDS011;33568;45.286;9.900;2022-07-22T05:23:59;9.43;;;4.90;;
47804;SDS011;33568;45.286;9.900;2022-07-22T05:26:26;9.98;;;4.88;;
47804;SDS011;33568;45.286;9.900;2022-07-22T05:28:55;14.85;;;5.90;;
47804;SDS011;33568;45.286;9.900;2022-07-22T05:31:23;9.85;;;5.38;;
47804;SDS011;33568;45.286;9.900;2022-07-22T05:33:50;12.02;;;4.68;;
47804;SDS011;33568;45.286;9.900;2022-07-22T05:36:35;10.73;;;5.55;;
47804;SDS011;33568;45.286;9.900;2022-07-22T05:39:04;9.75;;;4.93;;
47804;SDS011;33568;45.286;9.900;2022-07-22T05:41:30;11.25;;;5.03;;
47804;SDS011;33568;45.286;9.900;2022-07-22T05:43:57;10.90;;;5.85;;
47804;SDS011;33568;45.286;9.900;2022-07-22T05:46:23;12.20;;;5.97;;
47804;SDS011;33568;45.286;9.900;2022-07-22T05:48:50;11.10;;;6.03;;
47804;SDS011;33568;45.286;9.900;2022-07-22T05:51:19;13.77;;;6.35;;
47804;SDS011;33568;45.286;9.900;2022-07-22T05:53:46;11.15;;;6.88;;
47804;SDS011;33568;45.286;9.900;2022-07-22T05:56:12;13.35;;;6.80;;
47804;SDS011;33568;45.286;9.900;2022-07-22T05:58:40;12.10;;;5.38;;
47804;SDS011;33568;45.286;9.900;2022-07-22T06:01:10;12.57;;;6.82;;
47804;SDS011;33568;45.286;9.900;2022-07-22T06:03:37;17.15;;;8.00;;
47804;SDS011;33568;45.286;9.900;2022-07-22T06:06:05;12.57;;;7.80;;
47804;SDS011;33568;45.286;9.900;2022-07-22T06:08:35;15.77;;;7.45;;
47804;SDS011;33568;45.286;9.900;2022-07-22T06:11:03;21.67;;;7.72;;
47804;SDS011;33568;45.286;9.900;2022-07-22T06:13:30;11.57;;;7.38;;
47804;SDS011;33568;45.286;9.900;2022-07-22T06:15:58;23.35;;;8.52;;
47804;SDS011;33568;45.286;9.900;2022-07-22T06:18:27;27.33;;;7.68;;
47804;SDS011;33568;45.286;9.900;2022-07-22T06:20:53;12.02;;;7.82;;
47804;SDS011;33568;45.286;9.900;2022-07-22T06:23:20;19.00;;;7.20;;
47804;SDS011;33568;45.286;9.900;2022-07-22T06:25:48;13.65;;;8.20;;
47804;SDS011;33568;45.286;9.900;2022-07-22T06:28:23;12.98;;;7.03;;
47804;SDS011;33568;45.286;9.900;2022-07-22T06:30:51;19.83;;;6.05;;
47804;SDS011;33568;45.286;9.900;2022-07-22T06:33:19;21.25;;;7.72;;
47804;SDS011;33568;45.286;9.900;2022-07-22T06:35:46;12.70;;;7.13;;
47804;SDS011;33568;45.286;9.900;2022-07-22T06:38:13;13.80;;;7.03;;
47804;SDS011;33568;45.286;9.900;2022-07-22T06:41:17;22.50;;;7.55;;
47804;SDS011;33568;45.286;9.900;2022-07-22T06:44:04;14.52;;;5.50;;
47804;SDS011;33568;45.286;9.900;2022-07-22T06:46:44;19.20;;;7.30;;
47804;SDS011;33568;45.286;9.900;2022-07-22T06:49:11;13.55;;;7.13;;
47804;SDS011;33568;45.286;9.900;2022-07-22T06:51:37;8.55;;;5.75;;
47804;SDS011;33568;45.286;9.900;2022-07-22T06:54:04;11.65;;;6.32;;
47804;SDS011;33568;45.286;9.900;2022-07-22T06:56:30;14.00;;;6.50;;
47804;SDS011;33568;45.286;9.900;2022-07-22T06:58:57;20.58;;;7.38;;
47804;SDS011;33568;45.286;9.900;2022-07-22T07:01:25;22.20;;;7.65;;
47804;SDS011;33568;45.286;9.900;2022-07-22T07:03:53;24.80;;;7.80;;
47804;SDS011;33568;45.286;9.900;2022-07-22T07:06:20;11.57;;;6.93;;
47804;SDS011;33568;45.286;9.900;2022-07-22T07:09:14;12.27;;;5.22;;
47804;SDS011;33568;45.286;9.900;2022-07-22T07:11:48;20.55;;;7.07;;
47804;SDS011;33568;45.286;9.900;2022-07-22T07:14:37;16.48;;;7.18;;
47804;SDS011;33568;45.286;9.900;2022-07-22T07:17:05;7.95;;;5.63;;
47804;SDS011;33568;45.286;9.900;2022-07-22T07:19:32;13.80;;;6.28;;
47804;SDS011;33568;45.286;9.900;2022-07-22T07:21:58;9.70;;;6.07;;
47804;SDS011;33568;45.286;9.900;2022-07-22T07:24:25;17.42;;;6.20;;
47804;SDS011;33568;45.286;9.900;2022-07-22T07:26:51;13.15;;;4.60;;
47804;SDS011;33568;45.286;9.900;2022-07-22T07:29:18;14.35;;;5.47;;
47804;SDS011;33568;45.286;9.900;2022-07-22T07:31:45;11.55;;;6.03;;
47804;SDS011;33568;45.286;9.900;2022-07-22T07:34:14;13.48;;;5.30;;
47804;SDS011;33568;45.286;9.900;2022-07-22T07:36:41;17.38;;;4.22;;
47804;SDS011;33568;45.286;9.900;2022-07-22T07:39:09;12.48;;;4.85;;
47804;SDS011;33568;45.286;9.900;2022-07-22T07:41:35;11.57;;;5.28;;
47804;SDS011;33568;45.286;9.900;2022-07-22T07:44:03;14.02;;;4.63;;
47804;SDS011;33568;45.286;9.900;2022-07-22T07:46:31;10.52;;;4.85;;
47804;SDS011;33568;45.286;9.900;2022-07-22T07:48:58;9.98;;;4.18;;
47804;SDS011;33568;45.286;9.900;2022-07-22T07:51:24;10.48;;;3.78;;
47804;SDS011;33568;45.286;9.900;2022-07-22T07:53:52;10.40;;;4.70;;
47804;SDS011;33568;45.286;9.900;2022-07-22T07:56:19;13.27;;;4.60;;
47804;SDS011;33568;45.286;9.900;2022-07-22T07:58:49;13.45;;;4.97;;
47804;SDS011;33568;45.286;9.900;2022-07-22T08:01:15;6.15;;;3.65;;
47804;SDS011;33568;45.286;9.900;2022-07-22T08:03:43;7.60;;;3.58;;
47804;SDS011;33568;45.286;9.900;2022-07-22T08:06:10;12.55;;;4.65;;
47804;SDS011;33568;45.286;9.900;2022-07-22T08:08:36;16.70;;;5.60;;
47804;SDS011;33568;45.286;9.900;2022-07-22T08:11:12;15.27;;;4.75;;
47804;SDS011;33568;45.286;9.900;2022-07-22T08:14:08;12.90;;;5.03;;
47804;SDS011;33568;45.286;9.900;2022-07-22T08:16:54;11.32;;;4.78;;
47804;SDS011;33568;45.286;9.900;2022-07-22T08:19:22;7.93;;;4.35;;
47804;SDS011;33568;45.286;9.900;2022-07-22T08:21:49;14.63;;;4.57;;
47804;SDS011;33568;45.286;9.900;2022-07-22T08:24:25;13.25;;;4.18;;
47804;SDS011;33568;45.286;9.900;2022-07-22T08:26:51;12.82;;;4.82;;
47804;SDS011;33568;45.286;9.900;2022-07-22T08:29:18;17.55;;;5.18;;
47804;SDS011;33568;45.286;9.900;2022-07-22T08:31:46;12.40;;;3.90;;
47804;SDS011;33568;45.286;9.900;2022-07-22T08:34:14;10.82;;;3.78;;
47804;SDS011;33568;45.286;9.900;2022-07-22T08:36:42;11.13;;;3.95;;
47804;SDS011;33568;45.286;9.900;2022-07-22T08:39:09;12.48;;;4.60;;
47804;SDS011;33568;45.286;9.900;2022-07-22T08:41:37;11.05;;;4.80;;
47804;SDS011;33568;45.286;9.900;2022-07-22T08:44:06;13.15;;;4.18;;
47804;SDS011;33568;45.286;9.900;2022-07-22T08:46:34;8.18;;;4.13;;
47804;SDS011;33568;45.286;9.900;2022-07-22T08:49:20;10.43;;;4.65;;
47804;SDS011;33568;45.286;9.900;2022-07-22T08:52:11;9.60;;;4.13;;
47804;SDS011;33568;45.286;9.900;2022-07-22T08:54:42;8.88;;;4.45;;
47804;SDS011;33568;45.286;9.900;2022-07-22T08:57:16;9.00;;;4.20;;
47804;SDS011;33568;45.286;9.900;2022-07-22T08:59:48;7.35;;;4.22;;
47804;SDS011;33568;45.286;9.900;2022-07-22T09:02:16;14.85;;;4.68;;
47804;SDS011;33568;45.286;9.900;2022-07-22T09:04:58;18.23;;;4.95;;
47804;SDS011;33568;45.286;9.900;2022-07-22T09:07:36;13.38;;;5.28;;
47804;SDS011;33568;45.286;9.900;2022-07-22T09:10:17;10.50;;;4.63;;
47804;SDS011;33568;45.286;9.900;2022-07-22T09:13:08;9.85;;;5.18;;
47804;SDS011;33568;45.286;9.900;2022-07-22T09:16:13;10.52;;;4.72;;
47804;SDS011;33568;45.286;9.900;2022-07-22T09:19:13;11.65;;;4.97;;
47804;SDS011;33568;45.286;9.900;2022-07-22T09:22:03;14.82;;;4.15;;
47804;SDS011;33568;45.286;9.900;2022-07-22T09:24:50;14.07;;;4.30;;
47804;SDS011;33568;45.286;9.900;2022-07-22T09:27:31;12.02;;;4.22;;
47804;SDS011;33568;45.286;9.900;2022-07-22T09:30:27;14.32;;;4.85;;
47804;SDS011;33568;45.286;9.900;2022-07-22T09:33:04;13.35;;;4.68;;
47804;SDS011;33568;45.286;9.900;2022-07-22T09:35:38;12.23;;;4.90;;
47804;SDS011;33568;45.286;9.900;2022-07-22T09:38:08;18.58;;;4.55;;
47804;SDS011;33568;45.286;9.900;2022-07-22T09:40:38;9.55;;;4.32;;
47804;SDS011;33568;45.286;9.900;2022-07-22T09:43:11;6.93;;;4.15;;
47804;SDS011;33568;45.286;9.900;2022-07-22T09:45:48;9.52;;;4.35;;
47804;SDS011;33568;45.286;9.900;2022-07-22T09:48:18;10.48;;;4.53;;
47804;SDS011;33568;45.286;9.900;2022-07-22T09:50:52;12.68;;;4.07;;
47804;SDS011;33568;45.286;9.900;2022-07-22T09:53:49;16.77;;;3.90;;
47804;SDS011;33568;45.286;9.900;2022-07-22T09:56:21;11.27;;;3.95;;
47804;SDS011;33568;45.286;9.900;2022-07-22T09:58:50;18.33;;;5.00;;
47804;SDS011;33568;45.286;9.900;2022-07-22T10:01:25;15.02;;;4.13;;
47804;SDS011;33568;45.286;9.900;2022-07-22T10:03:51;9.07;;;5.13;;
47804;SDS011;33568;45.286;9.900;2022-07-22T10:06:20;13.63;;;4.18;;
47804;SDS011;33568;45.286;9.900;2022-07-22T10:08:48;10.52;;;3.92;;
47804;SDS011;33568;45.286;9.900;2022-07-22T10:11:17;11.23;;;3.65;;
47804;SDS011;33568;45.286;9.900;2022-07-22T10:13:44;14.35;;;3.92;;
47804;SDS011;33568;45.286;9.900;2022-07-22T10:16:13;13.88;;;4.55;;
47804;SDS011;33568;45.286;9.900;2022-07-22T10:18:43;12.18;;;4.05;;
47804;SDS011;33568;45.286;9.900;2022-07-22T10:21:12;12.00;;;3.72;;
47804;SDS011;33568;45.286;9.900;2022-07-22T10:26:54;19.40;;;4.25;;
47804;SDS011;33568;45.286;9.900;2022-07-22T10:34:42;8.45;;;3.28;;
47804;SDS011;33568;45.286;9.900;2022-07-22T10:48:07;14.10;;;3.40;;
47804;SDS011;33568;45.286;9.900;2022-07-22T10:53:03;16.77;;;3.75;;
47804;SDS011;33568;45.286;9.900;2022-07-22T10:55:32;8.52;;;3.78;;
47804;SDS011;33568;45.286;9.900;2022-07-22T10:57:59;15.35;;;3.40;;
47804;SDS011;33568;45.286;9.900;2022-07-22T11:00:26;8.07;;;3.55;;
47804;SDS011;33568;45.286;9.900;2022-07-22T11:02:52;9.73;;;3.83;;
47804;SDS011;33568;45.286;9.900;2022-07-22T11:05:26;9.48;;;3.63;;
47804;SDS011;33568;45.286;9.900;2022-07-22T11:07:53;5.68;;;3.08;;
47804;SDS011;33568;45.286;9.900;2022-07-22T11:10:20;15.65;;;3.63;;
47804;SDS011;33568;45.286;9.900;2022-07-22T11:12:47;15.50;;;3.55;;
47804;SDS011;33568;45.286;9.900;2022-07-22T11:15:15;7.88;;;3.60;;
47804;SDS011;33568;45.286;9.900;2022-07-22T11:17:45;9.25;;;3.25;;
47804;SDS011;33568;45.286;9.900;2022-07-22T11:20:12;6.88;;;3.42;;
47804;SDS011;33568;45.286;9.900;2022-07-22T11:22:42;12.63;;;3.33;;
47804;SDS011;33568;45.286;9.900;2022-07-22T11:25:13;7.38;;;3.08;;
47804;SDS011;33568;45.286;9.900;2022-07-22T11:27:47;11.48;;;3.47;;
47804;SDS011;33568;45.286;9.900;2022-07-22T11:30:18;6.65;;;3.13;;
47804;SDS011;33568;45.286;9.900;2022-07-22T11:32:45;7.55;;;3.08;;
47804;SDS011;33568;45.286;9.900;2022-07-22T11:35:13;8.23;;;2.97;;
47804;SDS011;33568;45.286;9.900;2022-07-22T11:37:39;8.13;;;2.90;;
47804;SDS011;33568;45.286;9.900;2022-07-22T11:40:07;10.95;;;2.90;;
47804;SDS011;33568;45.286;9.900;2022-07-22T11:42:35;6.15;;;2.60;;
47804;SDS011;33568;45.286;9.900;2022-07-22T11:45:02;9.32;;;2.97;;
47804;SDS011;33568;45.286;9.900;2022-07-22T11:47:29;9.50;;;3.42;;
47804;SDS011;33568;45.286;9.900;2022-07-22T11:49:57;7.38;;;3.08;;
47804;SDS011;33568;45.286;9.900;2022-07-22T11:52:25;7.05;;;2.70;;
47804;SDS011;33568;45.286;9.900;2022-07-22T11:54:51;9.82;;;3.25;;
47804;SDS011;33568;45.286;9.900;2022-07-22T11:57:18;8.27;;;3.22;;
47804;SDS011;33568;45.286;9.900;2022-07-22T11:59:44;11.07;;;2.97;;
47804;SDS011;33568;45.286;9.900;2022-07-22T12:02:11;5.25;;;3.00;;
47804;SDS011;33568;45.286;9.900;2022-07-22T12:04:42;10.75;;;3.22;;
47804;SDS011;33568;45.286;9.900;2022-07-22T12:07:11;6.80;;;3.20;;
47804;SDS011;33568;45.286;9.900;2022-07-22T12:09:39;7.57;;;3.10;;
47804;SDS011;33568;45.286;9.900;2022-07-22T12:12:08;12.45;;;3.22;;
47804;SDS011;33568;45.286;9.900;2022-07-22T12:14:35;12.15;;;2.72;;
47804;SDS011;33568;45.286;9.900;2022-07-22T12:17:06;8.63;;;2.90;;
47804;SDS011;33568;45.286;9.900;2022-07-22T12:19:35;8.25;;;2.75;;
47804;SDS011;33568;45.286;9.900;2022-07-22T12:24:41;6.60;;;3.28;;
47804;SDS011;33568;45.286;9.900;2022-07-22T12:27:12;7.47;;;2.58;;
47804;SDS011;33568;45.286;9.900;2022-07-22T12:29:44;6.93;;;2.60;;
47804;SDS011;33568;45.286;9.900;2022-07-22T12:37:34;8.05;;;2.60;;
47804;SDS011;33568;45.286;9.900;2022-07-22T12:42:38;7.10;;;2.70;;
47804;SDS011;33568;45.286;9.900;2022-07-22T12:45:08;6.35;;;2.50;;
47804;SDS011;33568;45.286;9.900;2022-07-22T12:47:48;3.45;;;2.17;;
47804;SDS011;33568;45.286;9.900;2022-07-22T12:50:34;7.97;;;2.60;;
47804;SDS011;33568;45.286;9.900;2022-07-22T12:53:05;6.88;;;2.67;;
47804;SDS011;33568;45.286;9.900;2022-07-22T12:55:38;6.65;;;2.47;;
47804;SDS011;33568;45.286;9.900;2022-07-22T12:58:08;6.80;;;2.25;;
47804;SDS011;33568;45.286;9.900;2022-07-22T13:00:38;7.10;;;2.35;;
47804;SDS011;33568;45.286;9.900;2022-07-22T13:03:06;7.38;;;2.53;;
47804;SDS011;33568;45.286;9.900;2022-07-22T13:05:33;6.38;;;2.67;;
47804;SDS011;33568;45.286;9.900;2022-07-22T13:08:01;7.28;;;2.88;;
47804;SDS011;33568;45.286;9.900;2022-07-22T13:10:30;6.75;;;2.28;;
47804;SDS011;33568;45.286;9.900;2022-07-22T13:12:56;10.52;;;2.97;;
47804;SDS011;33568;45.286;9.900;2022-07-22T13:15:23;10.77;;;2.30;;
47804;SDS011;33568;45.286;9.900;2022-07-22T13:17:50;6.95;;;2.40;;
47804;SDS011;33568;45.286;9.900;2022-07-22T13:20:16;7.50;;;2.70;;
47804;SDS011;33568;45.286;9.900;2022-07-22T13:22:44;3.97;;;2.00;;
47804;SDS011;33568;45.286;9.900;2022-07-22T13:25:11;11.52;;;2.67;;
47804;SDS011;33568;45.286;9.900;2022-07-22T13:27:38;12.00;;;2.63;;
47804;SDS011;33568;45.286;9.900;2022-07-22T13:30:05;10.05;;;2.78;;
47804;SDS011;33568;45.286;9.900;2022-07-22T13:32:32;5.13;;;2.45;;
47804;SDS011;33568;45.286;9.900;2022-07-22T13:34:59;3.13;;;2.03;;
47804;SDS011;33568;45.286;9.900;2022-07-22T13:37:25;6.60;;;2.33;;
47804;SDS011;33568;45.286;9.900;2022-07-22T13:39:52;8.23;;;2.33;;
47804;SDS011;33568;45.286;9.900;2022-07-22T13:42:18;9.55;;;3.65;;
47804;SDS011;33568;45.286;9.900;2022-07-22T13:44:46;5.57;;;2.45;;
47804;SDS011;33568;45.286;9.900;2022-07-22T13:47:13;5.15;;;2.35;;
47804;SDS011;33568;45.286;9.900;2022-07-22T13:49:40;4.53;;;2.35;;
47804;SDS011;33568;45.286;9.900;2022-07-22T13:52:07;4.00;;;2.17;;
47804;SDS011;33568;45.286;9.900;2022-07-22T13:54:33;10.45;;;2.72;;
47804;SDS011;33568;45.286;9.900;2022-07-22T13:57:00;7.05;;;2.47;;
47804;SDS011;33568;45.286;9.900;2022-07-22T13:59:29;6.68;;;2.33;;
47804;SDS011;33568;45.286;9.900;2022-07-22T14:01:56;7.60;;;2.63;;
47804;SDS011;33568;45.286;9.900;2022-07-22T14:04:23;10.30;;;3.03;;
47804;SDS011;33568;45.286;9.900;2022-07-22T14:06:50;8.55;;;2.88;;
47804;SDS011;33568;45.286;9.900;2022-07-22T14:09:17;3.85;;;2.40;;
47804;SDS011;33568;45.286;9.900;2022-07-22T14:11:43;8.50;;;2.75;;
47804;SDS011;33568;45.286;9.900;2022-07-22T14:14:10;6.50;;;2.72;;
47804;SDS011;33568;45.286;9.900;2022-07-22T14:16:36;7.88;;;2.67;;
47804;SDS011;33568;45.286;9.900;2022-07-22T14:21:29;12.02;;;2.95;;
47804;SDS011;33568;45.286;9.900;2022-07-22T14:23:56;3.72;;;2.08;;
47804;SDS011;33568;45.286;9.900;2022-07-22T14:26:23;10.68;;;2.63;;
47804;SDS011;33568;45.286;9.900;2022-07-22T14:28:49;6.90;;;2.90;;
47804;SDS011;33568;45.286;9.900;2022-07-22T14:31:16;4.35;;;2.25;;
47804;SDS011;33568;45.286;9.900;2022-07-22T14:33:42;11.38;;;3.10;;
47804;SDS011;33568;45.286;9.900;2022-07-22T14:36:09;6.60;;;2.50;;
47804;SDS011;33568;45.286;9.900;2022-07-22T14:38:35;7.15;;;2.85;;
47804;SDS011;33568;45.286;9.900;2022-07-22T14:41:02;15.82;;;2.95;;
47804;SDS011;33568;45.286;9.900;2022-07-22T14:43:28;5.38;;;2.58;;
47804;SDS011;33568;45.286;9.900;2022-07-22T14:45:55;6.22;;;3.10;;
47804;SDS011;33568;45.286;9.900;2022-07-22T14:48:21;11.20;;;2.90;;
47804;SDS011;33568;45.286;9.900;2022-07-22T14:50:48;6.38;;;2.72;;
47804;SDS011;33568;45.286;9.900;2022-07-22T14:53:14;6.15;;;2.70;;
47804;SDS011;33568;45.286;9.900;2022-07-22T14:55:42;10.60;;;3.17;;
47804;SDS011;33568;45.286;9.900;2022-07-22T14:58:09;14.40;;;3.00;;
47804;SDS011;33568;45.286;9.900;2022-07-22T15:00:35;5.43;;;2.60;;
47804;SDS011;33568;45.286;9.900;2022-07-22T15:03:02;15.40;;;3.28;;
47804;SDS011;33568;45.286;9.900;2022-07-22T15:05:28;6.53;;;3.30;;
47804;SDS011;33568;45.286;9.900;2022-07-22T15:07:55;6.18;;;2.55;;
47804;SDS011;33568;45.286;9.900;2022-07-22T15:10:21;5.68;;;2.80;;
47804;SDS011;33568;45.286;9.900;2022-07-22T15:12:49;12.90;;;3.00;;
47804;SDS011;33568;45.286;9.900;2022-07-22T15:15:15;13.50;;;2.90;;
47804;SDS011;33568;45.286;9.900;2022-07-22T15:17:41;3.25;;;2.85;;
47804;SDS011;33568;45.286;9.900;2022-07-22T15:20:09;9.45;;;3.10;;
47804;SDS011;33568;45.286;9.900;2022-07-22T15:22:36;8.20;;;2.95;;
47804;SDS011;33568;45.286;9.900;2022-07-22T15:25:02;8.07;;;2.53;;
47804;SDS011;33568;45.286;9.900;2022-07-22T15:27:30;5.43;;;2.72;;
47804;SDS011;33568;45.286;9.900;2022-07-22T15:29:56;12.82;;;2.80;;